Time;durP1;ratioP1;P1;durP2;ratioP2;P2;SDS_P1;SDS_P2;PMS_P1;PMS_P2;Temp;Humidity;BMP_temperature;BMP_pressure;BME280_temperature;BME280_humidity;BME280_pressure;Samples;Min_cycle;Max_cycle;Signal;HPM_P1;HPM_P2
2021/09/18 00:01:26;;;;;;;1.65;0.50;;;;;;;;;;5046933;28;20048;-57
2021/09/18 00:03:52;;;;;;;6.25;0.60;;;;;;;;;;5047828;28;20040;-58
2021/09/18 00:06:17;;;;;;;1.90;0.60;;;;;;;;;;5048275;28;20064;-57
2021/09/18 00:08:43;;;;;;;3.80;0.50;;;;;;;;;;5046605;28;20113;-57
2021/09/18 00:11:09;;;;;;;1.95;0.50;;;;;;;;;;5045526;28;20063;-58
2021/09/18 00:13:35;;;;;;;1.85;0.60;;;;;;;;;;5045588;28;20716;-57
2021/09/18 00:16:01;;;;;;;2.13;0.70;;;;;;;;;;5027789;28;20037;-56
2021/09/18 00:18:27;;;;;;;1.35;0.60;;;;;;;;;;5046791;28;20939;-57
2021/09/18 00:20:53;;;;;;;2.22;0.50;;;;;;;;;;5048667;28;20056;-58
2021/09/18 00:23:19;;;;;;;6.05;0.70;;;;;;;;;;5047082;28;20052;-58
2021/09/18 00:25:45;;;;;;;7.82;1.00;;;;;;;;;;5048505;28;20629;-58
2021/09/18 00:28:11;;;;;;;3.00;0.77;;;;;;;;;;5048331;28;20044;-58
2021/09/18 00:30:39;;;;;;;3.67;0.70;;;;;;;;;;5046579;28;20040;-58
2021/09/18 00:33:05;;;;;;;3.25;0.80;;;;;;;;;;5046497;28;20066;-58
2021/09/18 00:35:30;;;;;;;6.68;1.00;;;;;;;;;;5045890;28;20037;-57
2021/09/18 00:37:56;;;;;;;5.05;0.88;;;;;;;;;;5044825;28;20527;-58
2021/09/18 00:40:22;;;;;;;5.13;1.00;;;;;;;;;;5049720;28;20072;-56
2021/09/18 00:42:48;;;;;;;8.13;0.88;;;;;;;;;;5047467;28;20730;-58
2021/09/18 00:45:14;;;;;;;4.10;0.90;;;;;;;;;;5046840;28;20041;-58
2021/09/18 00:47:39;;;;;;;3.85;0.80;;;;;;;;;;5046004;28;20045;-57
2021/09/18 00:50:06;;;;;;;3.10;0.90;;;;;;;;;;5048065;28;20090;-58
2021/09/18 00:52:32;;;;;;;6.20;1.30;;;;;;;;;;5044960;28;20033;-58
2021/09/18 00:54:58;;;;;;;7.10;1.10;;;;;;;;;;5047975;28;20495;-57
2021/09/18 00:57:24;;;;;;;4.55;1.00;;;;;;;;;;5050893;28;20036;-58
2021/09/18 00:59:50;;;;;;;4.38;0.90;;;;;;;;;;5052572;28;20045;-58
2021/09/18 01:02:16;;;;;;;7.47;0.95;;;;;;;;;;5051203;28;20041;-57
2021/09/18 01:04:41;;;;;;;7.50;1.15;;;;;;;;;;5050092;28;20036;-57
2021/09/18 01:07:08;;;;;;;7.32;0.90;;;;;;;;;;5049778;28;21019;-57
2021/09/18 01:09:34;;;;;;;5.28;1.05;;;;;;;;;;5048979;28;20486;-57
2021/09/18 01:12:02;;;;;;;5.07;0.90;;;;;;;;;;5050917;28;20044;-56
2021/09/18 01:14:28;;;;;;;6.43;1.15;;;;;;;;;;5048463;28;20040;-57
2021/09/18 01:16:54;;;;;;;4.63;0.95;;;;;;;;;;5050543;28;20094;-57
2021/09/18 01:19:20;;;;;;;11.60;0.95;;;;;;;;;;5050629;28;20045;-56
2021/09/18 01:21:49;;;;;;;5.50;1.13;;;;;;;;;;5050534;28;20430;-56
2021/09/18 01:24:15;;;;;;;5.68;2.13;;;;;;;;;;5050146;28;20504;-58
2021/09/18 01:26:41;;;;;;;7.93;1.00;;;;;;;;;;5048464;28;20056;-58
2021/09/18 01:29:08;;;;;;;5.43;1.05;;;;;;;;;;5050235;28;20584;-57
2021/09/18 01:31:38;;;;;;;8.88;1.05;;;;;;;;;;5049368;28;20091;-59
2021/09/18 01:34:04;;;;;;;4.25;0.80;;;;;;;;;;5048719;28;20048;-58
2021/09/18 01:36:29;;;;;;;5.95;0.85;;;;;;;;;;5030541;28;20041;-57
2021/09/18 01:38:55;;;;;;;7.00;1.02;;;;;;;;;;5051624;28;20075;-57
2021/09/18 01:41:21;;;;;;;8.93;0.90;;;;;;;;;;5032149;28;20061;-57
2021/09/18 01:43:47;;;;;;;5.15;0.90;;;;;;;;;;5048647;28;20052;-58
2021/09/18 01:46:13;;;;;;;12.02;1.35;;;;;;;;;;5048763;28;20644;-56
2021/09/18 01:48:38;;;;;;;4.78;1.17;;;;;;;;;;5049804;28;20532;-57
2021/09/18 01:51:09;;;;;;;5.28;0.95;;;;;;;;;;5051025;28;20489;-57
2021/09/18 01:53:35;;;;;;;6.88;0.98;;;;;;;;;;5049190;28;20041;-57
2021/09/18 01:56:01;;;;;;;8.18;0.90;;;;;;;;;;5050340;28;20051;-58
2021/09/18 01:58:27;;;;;;;5.75;0.80;;;;;;;;;;5050770;28;20056;-58
2021/09/18 02:00:54;;;;;;;6.07;1.00;;;;;;;;;;5050178;28;20087;-57
2021/09/18 02:03:20;;;;;;;2.63;0.70;;;;;;;;;;5047701;28;20040;-58
2021/09/18 02:05:46;;;;;;;7.80;0.90;;;;;;;;;;5048969;28;20150;-57
2021/09/18 02:08:12;;;;;;;2.80;0.80;;;;;;;;;;5050252;28;20604;-58
2021/09/18 02:10:38;;;;;;;8.50;1.13;;;;;;;;;;5050074;28;20052;-58
2021/09/18 02:13:05;;;;;;;3.80;0.82;;;;;;;;;;5048774;28;20044;-58
2021/09/18 02:15:32;;;;;;;2.55;0.70;;;;;;;;;;5047230;28;20386;-59
2021/09/18 02:17:58;;;;;;;6.97;1.20;;;;;;;;;;5048531;28;20118;-58
2021/09/18 02:20:25;;;;;;;4.90;1.63;;;;;;;;;;5048076;28;20697;-59
2021/09/18 02:22:51;;;;;;;7.55;1.88;;;;;;;;;;5033795;28;20040;-58
2021/09/18 02:25:17;;;;;;;5.55;1.35;;;;;;;;;;5049503;28;20033;-59
2021/09/18 02:27:43;;;;;;;6.28;1.60;;;;;;;;;;5047847;28;20060;-58
2021/09/18 02:30:11;;;;;;;7.18;1.30;;;;;;;;;;5051636;28;20047;-59
2021/09/18 02:32:36;;;;;;;4.88;1.25;;;;;;;;;;5047759;28;20075;-59
2021/09/18 02:35:07;;;;;;;4.40;1.23;;;;;;;;;;5050680;28;20119;-59
2021/09/18 02:37:33;;;;;;;9.60;3.38;;;;;;;;;;5047385;28;20079;-59
2021/09/18 02:39:59;;;;;;;7.03;2.67;;;;;;;;;;5046825;28;20115;-58
2021/09/18 02:42:25;;;;;;;8.88;3.17;;;;;;;;;;5048446;28;20127;-59
2021/09/18 02:44:51;;;;;;;8.48;3.00;;;;;;;;;;5050794;28;20049;-58
2021/09/18 02:47:17;;;;;;;9.10;3.22;;;;;;;;;;5050445;28;20040;-60
2021/09/18 02:49:42;;;;;;;7.82;3.13;;;;;;;;;;5032335;28;20041;-59
2021/09/18 02:52:08;;;;;;;7.82;3.17;;;;;;;;;;5047863;28;20117;-58
2021/09/18 02:54:34;;;;;;;8.77;2.70;;;;;;;;;;5047482;28;20045;-58
2021/09/18 02:57:00;;;;;;;8.25;2.63;;;;;;;;;;5048280;28;20041;-59
2021/09/18 02:59:26;;;;;;;13.60;2.38;;;;;;;;;;5048341;28;20060;-59
2021/09/18 03:01:52;;;;;;;9.52;2.38;;;;;;;;;;5047387;28;20184;-59
2021/09/18 03:04:18;;;;;;;8.10;2.35;;;;;;;;;;5048550;28;20072;-58
2021/09/18 03:06:44;;;;;;;8.55;1.80;;;;;;;;;;5048942;28;20067;-59
2021/09/18 03:09:09;;;;;;;7.72;2.08;;;;;;;;;;5048387;28;20072;-58
2021/09/18 03:11:35;;;;;;;6.05;1.90;;;;;;;;;;5047070;28;20049;-56
2021/09/18 03:14:01;;;;;;;11.43;2.90;;;;;;;;;;5048705;28;20051;-58
2021/09/18 03:16:27;;;;;;;8.32;2.40;;;;;;;;;;5049400;28;20070;-58
2021/09/18 03:18:53;;;;;;;6.10;1.65;;;;;;;;;;5048229;28;20033;-58
2021/09/18 03:21:19;;;;;;;7.00;2.13;;;;;;;;;;5047778;28;20053;-57
2021/09/18 03:23:44;;;;;;;6.13;1.25;;;;;;;;;;5030963;28;20032;-56
2021/09/18 03:26:10;;;;;;;11.50;1.67;;;;;;;;;;5048128;28;20040;-58
2021/09/18 03:28:36;;;;;;;11.52;1.30;;;;;;;;;;5045948;28;20630;-59
2021/09/18 03:31:02;;;;;;;7.15;1.67;;;;;;;;;;5047892;28;20378;-58
2021/09/18 03:33:28;;;;;;;12.25;1.98;;;;;;;;;;5046182;28;20996;-56
2021/09/18 03:35:54;;;;;;;9.98;1.52;;;;;;;;;;5048757;28;20037;-58
2021/09/18 03:38:20;;;;;;;5.63;1.52;;;;;;;;;;5030658;28;20033;-57
2021/09/18 03:40:46;;;;;;;11.65;1.88;;;;;;;;;;5050346;28;20121;-58
2021/09/18 03:43:12;;;;;;;8.38;1.65;;;;;;;;;;5047122;28;20443;-58
2021/09/18 03:45:40;;;;;;;4.45;1.33;;;;;;;;;;5047191;28;20056;-58
2021/09/18 03:48:06;;;;;;;7.95;1.77;;;;;;;;;;5046803;28;20056;-58
2021/09/18 03:50:32;;;;;;;4.45;1.60;;;;;;;;;;5046378;28;20970;-57
2021/09/18 03:52:58;;;;;;;5.38;1.83;;;;;;;;;;5049373;28;20037;-58
2021/09/18 03:55:24;;;;;;;5.55;1.77;;;;;;;;;;5044878;28;20390;-58
2021/09/18 03:57:49;;;;;;;8.00;1.90;;;;;;;;;;5050137;28;20067;-57
2021/09/18 04:00:15;;;;;;;8.25;2.10;;;;;;;;;;5049528;28;20080;-58
2021/09/18 04:02:41;;;;;;;9.40;2.20;;;;;;;;;;5047012;28;20071;-57
2021/09/18 04:05:07;;;;;;;5.97;2.25;;;;;;;;;;5047723;28;20044;-58
2021/09/18 04:07:33;;;;;;;5.70;2.20;;;;;;;;;;5045549;28;20053;-57
2021/09/18 04:09:59;;;;;;;7.95;2.25;;;;;;;;;;5033016;28;20040;-58
2021/09/18 04:12:25;;;;;;;6.10;2.20;;;;;;;;;;5046145;28;20132;-58
2021/09/18 04:14:51;;;;;;;6.13;2.30;;;;;;;;;;5046769;28;20056;-57
2021/09/18 04:17:16;;;;;;;6.75;2.20;;;;;;;;;;5048473;28;20044;-58
2021/09/18 04:19:42;;;;;;;5.35;2.05;;;;;;;;;;5047197;28;20404;-58
2021/09/18 04:22:08;;;;;;;6.32;1.80;;;;;;;;;;5046710;28;20842;-57
2021/09/18 04:24:37;;;;;;;4.38;1.70;;;;;;;;;;5048233;28;20071;-55
2021/09/18 04:27:03;;;;;;;5.30;1.67;;;;;;;;;;5048838;28;20115;-58
2021/09/18 04:29:31;;;;;;;5.97;1.38;;;;;;;;;;5027793;28;20529;-57
2021/09/18 04:31:57;;;;;;;2.88;1.20;;;;;;;;;;5052628;28;20102;-57
2021/09/18 04:34:22;;;;;;;5.40;1.50;;;;;;;;;;5053065;28;20037;-57
2021/09/18 04:36:48;;;;;;;6.40;1.27;;;;;;;;;;5055226;28;20047;-58
2021/09/18 04:39:14;;;;;;;8.18;1.70;;;;;;;;;;5055565;28;20567;-57
2021/09/18 04:41:40;;;;;;;5.25;1.63;;;;;;;;;;5052159;28;20052;-58
2021/09/18 04:44:06;;;;;;;6.13;1.60;;;;;;;;;;5055137;28;21322;-58
2021/09/18 04:46:32;;;;;;;4.13;1.60;;;;;;;;;;5051157;28;20109;-58
2021/09/18 04:48:58;;;;;;;4.82;1.80;;;;;;;;;;5053695;28;20048;-57
2021/09/18 04:51:23;;;;;;;5.10;1.90;;;;;;;;;;5053488;28;20033;-59
2021/09/18 04:53:49;;;;;;;7.13;2.00;;;;;;;;;;5054448;28;20043;-58
2021/09/18 04:56:15;;;;;;;6.25;1.63;;;;;;;;;;5054468;28;20090;-57
2021/09/18 04:58:41;;;;;;;6.80;1.80;;;;;;;;;;5054508;28;20128;-55
2021/09/18 05:01:07;;;;;;;6.82;2.15;;;;;;;;;;5055142;28;20033;-58
2021/09/18 05:03:33;;;;;;;7.82;2.20;;;;;;;;;;5052293;28;20169;-57
2021/09/18 05:05:59;;;;;;;4.22;1.85;;;;;;;;;;5054579;28;20375;-58
2021/09/18 05:08:24;;;;;;;7.97;2.72;;;;;;;;;;5033149;28;20059;-57
2021/09/18 05:10:50;;;;;;;5.93;2.15;;;;;;;;;;5051790;28;20044;-57
2021/09/18 05:13:16;;;;;;;4.53;1.90;;;;;;;;;;5055214;28;20493;-57
2021/09/18 05:15:42;;;;;;;7.70;2.30;;;;;;;;;;5053707;28;20807;-57
2021/09/18 05:18:08;;;;;;;4.25;1.80;;;;;;;;;;5055895;28;20048;-57
2021/09/18 05:20:34;;;;;;;4.53;1.50;;;;;;;;;;5054371;28;20631;-55
2021/09/18 05:22:59;;;;;;;5.65;1.80;;;;;;;;;;5055630;28;20032;-57
2021/09/18 05:25:25;;;;;;;7.30;1.90;;;;;;;;;;5052526;28;20044;-57
2021/09/18 05:27:51;;;;;;;3.97;1.67;;;;;;;;;;5053929;28;20040;-56
2021/09/18 05:30:17;;;;;;;5.35;1.38;;;;;;;;;;5053803;28;20045;-58
2021/09/18 05:32:43;;;;;;;4.18;1.60;;;;;;;;;;5052871;28;20619;-57
2021/09/18 05:35:09;;;;;;;7.88;1.73;;;;;;;;;;5052769;28;20036;-57
2021/09/18 05:37:35;;;;;;;4.47;1.50;;;;;;;;;;5052928;28;20039;-58
2021/09/18 05:40:01;;;;;;;4.25;1.80;;;;;;;;;;5052769;28;20064;-57
2021/09/18 05:42:27;;;;;;;4.80;1.58;;;;;;;;;;5048763;28;20053;-58
2021/09/18 05:44:52;;;;;;;7.50;1.42;;;;;;;;;;5032589;28;20315;-58
2021/09/18 05:47:18;;;;;;;4.13;1.50;;;;;;;;;;5048282;28;20096;-58
2021/09/18 05:49:44;;;;;;;3.63;1.45;;;;;;;;;;5052623;28;20108;-57
2021/09/18 05:52:10;;;;;;;3.85;1.45;;;;;;;;;;5048592;28;20516;-56
2021/09/18 05:54:36;;;;;;;4.07;1.55;;;;;;;;;;5048545;28;20091;-57
2021/09/18 05:57:02;;;;;;;7.22;1.70;;;;;;;;;;5049172;28;20036;-57
2021/09/18 05:59:28;;;;;;;5.63;1.67;;;;;;;;;;5048491;28;20503;-58
2021/09/18 06:01:54;;;;;;;4.75;1.30;;;;;;;;;;5047751;28;20052;-57
2021/09/18 06:04:20;;;;;;;5.22;1.55;;;;;;;;;;5049553;28;20033;-57
2021/09/18 06:06:46;;;;;;;4.75;1.55;;;;;;;;;;5048237;28;20044;-58
2021/09/18 06:09:12;;;;;;;4.60;1.50;;;;;;;;;;5048735;28;20052;-58
2021/09/18 06:11:38;;;;;;;4.70;1.42;;;;;;;;;;5028740;28;20049;-57
2021/09/18 06:14:04;;;;;;;8.15;1.58;;;;;;;;;;5047999;28;20036;-57
2021/09/18 06:16:30;;;;;;;4.13;1.55;;;;;;;;;;5048516;28;20033;-57
2021/09/18 06:18:56;;;;;;;3.90;1.42;;;;;;;;;;5050492;28;20032;-56
2021/09/18 06:21:22;;;;;;;6.03;1.40;;;;;;;;;;5049382;28;20044;-58
2021/09/18 06:23:48;;;;;;;3.72;1.60;;;;;;;;;;5048254;28;20164;-58
2021/09/18 06:26:16;;;;;;;5.25;1.58;;;;;;;;;;5048172;28;20052;-57
2021/09/18 06:28:43;;;;;;;3.97;1.40;;;;;;;;;;5049172;28;20055;-57
2021/09/18 06:31:09;;;;;;;5.18;1.30;;;;;;;;;;5048581;28;20040;-58
2021/09/18 06:33:36;;;;;;;8.23;1.55;;;;;;;;;;5049350;28;20045;-57
2021/09/18 06:36:01;;;;;;;3.40;1.33;;;;;;;;;;5048047;28;20029;-57
2021/09/18 06:38:27;;;;;;;4.70;1.50;;;;;;;;;;5050616;28;20043;-58
2021/09/18 06:40:55;;;;;;;4.43;1.95;;;;;;;;;;5052174;28;20036;-58
2021/09/18 06:43:21;;;;;;;6.20;1.60;;;;;;;;;;5049351;28;20045;-58
2021/09/18 06:45:47;;;;;;;5.88;1.10;;;;;;;;;;5050603;28;20454;-57
2021/09/18 06:48:13;;;;;;;3.58;1.48;;;;;;;;;;5049542;28;20484;-57
2021/09/18 06:50:39;;;;;;;3.63;1.40;;;;;;;;;;5049170;28;20049;-57
2021/09/18 06:53:06;;;;;;;4.25;1.48;;;;;;;;;;5050881;28;20483;-58
2021/09/18 06:55:32;;;;;;;6.88;1.40;;;;;;;;;;5049389;28;20033;-57
2021/09/18 06:58:00;;;;;;;8.63;1.50;;;;;;;;;;5032053;28;20033;-58
2021/09/18 07:00:26;;;;;;;4.05;1.40;;;;;;;;;;5049575;28;20584;-58
2021/09/18 07:02:52;;;;;;;3.38;1.30;;;;;;;;;;5048545;28;20516;-57
2021/09/18 07:05:17;;;;;;;8.55;1.35;;;;;;;;;;5050764;28;20057;-58
2021/09/18 07:07:45;;;;;;;3.88;1.38;;;;;;;;;;5049218;28;20064;-57
2021/09/18 07:10:11;;;;;;;4.82;1.38;;;;;;;;;;5050615;28;20079;-58
2021/09/18 07:12:37;;;;;;;4.35;1.35;;;;;;;;;;5049491;28;20052;-58
2021/09/18 07:15:03;;;;;;;4.10;0.95;;;;;;;;;;5051783;28;20044;-58
2021/09/18 07:17:29;;;;;;;4.25;1.15;;;;;;;;;;5050912;28;20064;-58
2021/09/18 07:19:57;;;;;;;10.90;1.30;;;;;;;;;;5051429;28;20426;-58
2021/09/18 07:22:23;;;;;;;3.92;1.13;;;;;;;;;;5047774;28;20072;-58
2021/09/18 07:24:49;;;;;;;3.40;1.00;;;;;;;;;;5030097;28;20045;-57
2021/09/18 07:27:17;;;;;;;4.45;1.15;;;;;;;;;;5048703;28;20029;-57
2021/09/18 07:29:43;;;;;;;3.88;1.30;;;;;;;;;;5046673;28;20731;-58
2021/09/18 07:32:09;;;;;;;7.45;0.90;;;;;;;;;;5048640;28;20033;-58
2021/09/18 07:34:35;;;;;;;3.28;1.08;;;;;;;;;;5048449;28;20106;-58
2021/09/18 07:37:01;;;;;;;3.95;1.20;;;;;;;;;;5048191;28;20043;-58
2021/09/18 07:39:28;;;;;;;3.20;1.08;;;;;;;;;;5046963;28;20040;-58
2021/09/18 07:41:54;;;;;;;6.55;1.05;;;;;;;;;;5046687;28;20102;-58
2021/09/18 07:44:20;;;;;;;3.92;1.13;;;;;;;;;;5047828;28;20074;-59
2021/09/18 07:46:46;;;;;;;3.47;0.85;;;;;;;;;;5048812;28;20759;-57
2021/09/18 07:49:12;;;;;;;4.70;1.35;;;;;;;;;;5048663;28;20064;-59
2021/09/18 07:51:38;;;;;;;3.55;0.90;;;;;;;;;;5045425;28;20040;-59
2021/09/18 07:54:04;;;;;;;2.95;0.98;;;;;;;;;;5048761;28;20118;-58
2021/09/18 07:56:29;;;;;;;4.03;1.00;;;;;;;;;;5045197;28;20128;-56
2021/09/18 07:58:57;;;;;;;2.70;0.90;;;;;;;;;;5046755;28;20615;-57
2021/09/18 08:01:24;;;;;;;2.47;0.80;;;;;;;;;;5047776;28;20540;-56
2021/09/18 08:03:51;;;;;;;2.50;0.90;;;;;;;;;;5048308;28;20179;-58
2021/09/18 08:06:17;;;;;;;2.92;1.08;;;;;;;;;;5049009;28;20055;-58
2021/09/18 08:08:43;;;;;;;4.53;1.00;;;;;;;;;;5047402;28;20243;-57
2021/09/18 08:11:09;;;;;;;3.90;0.90;;;;;;;;;;5046458;28;20498;-58
2021/09/18 08:13:35;;;;;;;3.60;0.93;;;;;;;;;;5046957;28;20051;-58
2021/09/18 08:16:00;;;;;;;5.20;1.00;;;;;;;;;;5047488;28;20041;-58
2021/09/18 08:18:27;;;;;;;4.05;0.93;;;;;;;;;;5048067;28;20174;-58
2021/09/18 08:20:53;;;;;;;3.40;0.82;;;;;;;;;;5049378;28;20093;-57
2021/09/18 08:23:19;;;;;;;6.88;0.80;;;;;;;;;;5046226;28;20049;-58
2021/09/18 08:25:45;;;;;;;2.78;0.73;;;;;;;;;;5049392;28;20486;-58
2021/09/18 08:28:11;;;;;;;3.67;0.80;;;;;;;;;;5048634;28;20469;-58
2021/09/18 08:30:37;;;;;;;3.10;0.75;;;;;;;;;;5045541;28;20138;-58
2021/09/18 08:33:02;;;;;;;3.97;0.90;;;;;;;;;;5046549;28;20354;-58
2021/09/18 08:35:28;;;;;;;2.38;0.70;;;;;;;;;;5046319;28;20442;-57
2021/09/18 08:37:54;;;;;;;3.78;0.63;;;;;;;;;;5046285;28;20041;-57
2021/09/18 08:40:20;;;;;;;3.95;0.95;;;;;;;;;;5046852;28;20037;-58
2021/09/18 08:42:46;;;;;;;4.10;0.93;;;;;;;;;;5034329;28;20051;-58
2021/09/18 08:45:13;;;;;;;3.05;0.90;;;;;;;;;;5032508;28;20638;-57
2021/09/18 08:47:41;;;;;;;2.88;0.90;;;;;;;;;;5029264;28;20042;-58
2021/09/18 08:50:07;;;;;;;9.30;1.00;;;;;;;;;;5031182;28;20040;-58
2021/09/18 08:52:33;;;;;;;3.42;0.90;;;;;;;;;;5029923;28;20048;-58
2021/09/18 08:54:59;;;;;;;2.80;0.80;;;;;;;;;;5029612;28;20120;-58
2021/09/18 08:57:25;;;;;;;3.90;0.70;;;;;;;;;;5030767;28;22083;-57
2021/09/18 08:59:51;;;;;;;5.47;1.20;;;;;;;;;;5012078;28;20041;-58
2021/09/18 09:02:18;;;;;;;2.75;0.80;;;;;;;;;;5030131;28;20064;-58
2021/09/18 09:04:45;;;;;;;4.40;0.90;;;;;;;;;;5031395;28;20037;-57
2021/09/18 09:07:12;;;;;;;3.10;0.90;;;;;;;;;;5019710;28;20492;-58
2021/09/18 09:09:51;;;;;;;4.45;1.00;;;;;;;;;;5027150;28;20124;-58
2021/09/18 09:12:30;;;;;;;5.95;1.02;;;;;;;;;;5031188;28;20041;-57
2021/09/18 09:14:57;;;;;;;5.47;1.10;;;;;;;;;;5029820;28;20040;-58
2021/09/18 09:17:24;;;;;;;2.65;0.82;;;;;;;;;;5029219;28;20037;-58
2021/09/18 09:19:52;;;;;;;5.00;1.05;;;;;;;;;;5032006;28;20112;-58
2021/09/18 09:22:39;;;;;;;3.40;0.93;;;;;;;;;;5034096;28;20163;-58
2021/09/18 09:25:07;;;;;;;5.90;0.90;;;;;;;;;;5032599;28;20486;-58
2021/09/18 09:27:32;;;;;;;2.60;0.85;;;;;;;;;;5034390;28;20646;-58
2021/09/18 09:29:58;;;;;;;2.47;0.80;;;;;;;;;;5034439;28;20048;-58
2021/09/18 09:32:25;;;;;;;3.85;0.85;;;;;;;;;;5031943;28;20045;-58
2021/09/18 09:34:54;;;;;;;8.48;1.00;;;;;;;;;;5034739;28;20330;-57
2021/09/18 09:37:21;;;;;;;2.92;0.73;;;;;;;;;;5032025;28;20037;-58
2021/09/18 09:39:55;;;;;;;3.13;0.82;;;;;;;;;;5032817;28;20473;-58
2021/09/18 09:42:28;;;;;;;3.92;0.80;;;;;;;;;;5042618;28;20130;-58
2021/09/18 09:44:54;;;;;;;2.85;0.93;;;;;;;;;;5049909;28;20055;-57
2021/09/18 09:47:24;;;;;;;2.67;0.80;;;;;;;;;;5049728;28;20155;-57
2021/09/18 09:49:51;;;;;;;2.50;0.80;;;;;;;;;;5049237;28;20044;-57
2021/09/18 09:52:25;;;;;;;3.08;0.90;;;;;;;;;;5050385;28;20036;-58
2021/09/18 09:54:54;;;;;;;6.68;1.10;;;;;;;;;;5049184;28;20103;-57
2021/09/18 09:57:21;;;;;;;4.47;1.00;;;;;;;;;;5050279;28;20037;-57
2021/09/18 09:59:47;;;;;;;5.25;1.05;;;;;;;;;;5049518;28;20068;-58
2021/09/18 10:02:14;;;;;;;5.88;1.08;;;;;;;;;;5048923;28;20950;-58
2021/09/18 10:04:39;;;;;;;3.22;1.02;;;;;;;;;;5048742;28;20083;-58
2021/09/18 10:07:06;;;;;;;3.33;1.02;;;;;;;;;;5048616;28;20580;-59
2021/09/18 10:09:34;;;;;;;7.00;1.00;;;;;;;;;;5049537;28;20527;-58
2021/09/18 10:11:59;;;;;;;2.55;0.80;;;;;;;;;;5048463;28;20669;-58
2021/09/18 10:14:26;;;;;;;2.40;0.80;;;;;;;;;;5048587;28;20033;-58
2021/09/18 10:16:55;;;;;;;2.50;0.80;;;;;;;;;;5049840;28;20544;-57
2021/09/18 10:19:33;;;;;;;3.30;0.70;;;;;;;;;;5047586;28;20386;-57
2021/09/18 10:24:43;;;;;;;3.15;0.90;;;;;;;;;;5048675;28;20067;-57
2021/09/18 10:27:17;;;;;;;6.68;0.80;;;;;;;;;;5051140;28;20138;-58
2021/09/18 10:29:43;;;;;;;4.95;0.82;;;;;;;;;;5049655;28;20218;-57
2021/09/18 10:32:09;;;;;;;2.70;0.88;;;;;;;;;;5048165;28;20704;-58
2021/09/18 10:34:35;;;;;;;2.65;0.82;;;;;;;;;;5049284;28;20051;-58
2021/09/18 10:37:01;;;;;;;2.33;0.80;;;;;;;;;;5049904;28;20049;-58
2021/09/18 10:39:27;;;;;;;3.92;0.70;;;;;;;;;;5049828;28;20036;-58
2021/09/18 10:41:54;;;;;;;2.40;0.80;;;;;;;;;;5049922;28;20053;-59
2021/09/18 10:44:21;;;;;;;3.05;0.80;;;;;;;;;;5050425;28;20067;-57
2021/09/18 10:47:01;;;;;;;3.78;0.90;;;;;;;;;;5049772;28;20052;-58
2021/09/18 10:49:34;;;;;;;2.58;0.77;;;;;;;;;;5048229;28;20056;-57
2021/09/18 10:52:20;;;;;;;3.20;0.85;;;;;;;;;;5048665;28;20812;-57
2021/09/18 10:55:10;;;;;;;3.58;0.70;;;;;;;;;;5049022;28;20060;-57
2021/09/18 10:57:39;;;;;;;3.20;0.77;;;;;;;;;;5047230;28;20640;-57
2021/09/18 11:00:06;;;;;;;2.20;0.63;;;;;;;;;;5049895;28;20931;-57
2021/09/18 11:02:32;;;;;;;2.85;0.70;;;;;;;;;;5047896;28;20056;-57
2021/09/18 11:04:58;;;;;;;2.92;0.90;;;;;;;;;;5050275;28;20404;-58
2021/09/18 11:07:43;;;;;;;4.97;0.95;;;;;;;;;;5048102;28;20440;-57
2021/09/18 11:10:11;;;;;;;2.22;0.73;;;;;;;;;;5050397;28;20107;-57
2021/09/18 11:12:37;;;;;;;2.65;0.90;;;;;;;;;;5047619;28;20049;-57
2021/09/18 11:15:05;;;;;;;5.10;1.05;;;;;;;;;;5049313;28;20060;-57
2021/09/18 11:17:31;;;;;;;3.65;1.10;;;;;;;;;;5047080;28;20041;-57
2021/09/18 11:20:10;;;;;;;3.38;0.90;;;;;;;;;;5050046;28;20059;-57
2021/09/18 11:22:36;;;;;;;6.15;0.93;;;;;;;;;;5049386;28;20142;-57
2021/09/18 11:25:21;;;;;;;3.97;0.88;;;;;;;;;;5049856;28;20037;-57
2021/09/18 11:27:59;;;;;;;3.75;1.00;;;;;;;;;;5047718;28;20068;-56
2021/09/18 11:30:37;;;;;;;5.68;1.10;;;;;;;;;;5048666;28;20505;-57
2021/09/18 11:33:03;;;;;;;5.03;0.82;;;;;;;;;;5047808;28;20044;-57
2021/09/18 11:35:29;;;;;;;4.32;1.02;;;;;;;;;;5048996;28;20041;-58
2021/09/18 11:37:59;;;;;;;4.82;1.17;;;;;;;;;;5049589;28;20036;-57
2021/09/18 11:40:26;;;;;;;5.60;1.27;;;;;;;;;;5049370;28;20674;-57
2021/09/18 11:42:56;;;;;;;3.92;1.15;;;;;;;;;;5049276;28;20603;-57
2021/09/18 11:45:23;;;;;;;3.35;1.20;;;;;;;;;;5048364;28;20384;-58
2021/09/18 11:47:53;;;;;;;4.18;0.98;;;;;;;;;;5048595;28;20037;-58
2021/09/18 11:50:29;;;;;;;4.43;1.20;;;;;;;;;;5048547;28;20041;-57
2021/09/18 11:53:05;;;;;;;4.57;1.20;;;;;;;;;;5049453;28;20083;-58
2021/09/18 11:55:38;;;;;;;3.28;1.23;;;;;;;;;;5049829;28;20118;-58
2021/09/18 11:58:04;;;;;;;;;;;;;;;;;;5051578;28;20072;-58
2021/09/18 12:00:30;;;;;;;3.92;1.30;;;;;;;;;;5049798;28;20074;-58
2021/09/18 12:02:57;;;;;;;8.18;1.40;;;;;;;;;;5050090;28;20040;-57
2021/09/18 12:05:24;;;;;;;4.55;1.48;;;;;;;;;;5047409;28;20045;-56
2021/09/18 12:07:51;;;;;;;4.50;1.25;;;;;;;;;;5050256;28;20867;-58
2021/09/18 12:10:18;;;;;;;3.47;1.00;;;;;;;;;;5050798;28;20169;-57
2021/09/18 12:12:51;;;;;;;3.45;1.20;;;;;;;;;;5048234;28;20057;-58
2021/09/18 12:15:27;;;;;;;3.70;1.30;;;;;;;;;;5047947;28;20041;-57
2021/09/18 12:17:52;;;;;;;3.47;1.23;;;;;;;;;;5047083;28;20527;-58
2021/09/18 12:20:18;;;;;;;3.67;1.30;;;;;;;;;;5047857;28;20037;-57
2021/09/18 12:22:44;;;;;;;7.13;1.27;;;;;;;;;;5035518;28;20036;-58
2021/09/18 12:25:10;;;;;;;8.10;1.35;;;;;;;;;;5049212;28;20089;-57
2021/09/18 12:27:36;;;;;;;4.10;1.58;;;;;;;;;;5046913;28;20124;-56
2021/09/18 12:30:05;;;;;;;5.05;1.50;;;;;;;;;;5048835;28;20055;-58
2021/09/18 12:32:31;;;;;;;3.50;1.42;;;;;;;;;;5028339;28;21868;-58
2021/09/18 12:35:10;;;;;;;4.10;1.42;;;;;;;;;;5048635;28;20037;-58
2021/09/18 12:37:37;;;;;;;5.18;1.92;;;;;;;;;;5046406;28;20120;-58
2021/09/18 12:40:10;;;;;;;4.10;1.65;;;;;;;;;;5047352;28;20033;-58
2021/09/18 12:42:36;;;;;;;;;;;;;;;;;;5047355;28;20056;-57
2021/09/18 12:45:19;;;;;;;5.90;2.10;;;;;;;;;;5047021;28;19926;-58
2021/09/18 12:47:44;;;;;;;;;;;;;;;;;;5048074;28;20111;-58
2021/09/18 12:50:14;;;;;;;5.95;2.65;;;;;;;;;;5047011;28;19917;-58
2021/09/18 12:52:40;;;;;;;6.82;2.72;;;;;;;;;;5030142;28;20036;-57
2021/09/18 12:55:06;;;;;;;7.45;2.95;;;;;;;;;;5050706;28;20047;-57
2021/09/18 12:57:33;;;;;;;9.52;3.20;;;;;;;;;;5050135;28;20126;-58
2021/09/18 13:00:05;;;;;;;5.43;2.95;;;;;;;;;;5050661;28;20032;-58
2021/09/18 13:02:31;;;;;;;8.95;3.10;;;;;;;;;;5049135;28;20036;-57
2021/09/18 13:05:00;;;;;;;6.82;3.33;;;;;;;;;;5050934;28;20834;-57
2021/09/18 13:07:27;;;;;;;6.55;3.25;;;;;;;;;;5050270;28;20037;-55
2021/09/18 13:09:58;;;;;;;5.90;3.25;;;;;;;;;;5051187;28;20503;-57
2021/09/18 13:12:24;;;;;;;7.32;2.72;;;;;;;;;;5049701;28;20080;-58
2021/09/18 13:14:51;;;;;;;7.25;2.90;;;;;;;;;;5049515;28;20116;-57
2021/09/18 13:17:22;;;;;;;6.00;2.60;;;;;;;;;;5050149;28;20055;-58
2021/09/18 13:19:53;;;;;;;5.78;3.00;;;;;;;;;;5049819;28;20025;-58
2021/09/18 13:22:20;;;;;;;8.57;2.75;;;;;;;;;;5050162;28;20166;-57
2021/09/18 13:24:47;;;;;;;6.78;2.83;;;;;;;;;;5049997;28;20041;-58
2021/09/18 13:27:13;;;;;;;6.43;3.63;;;;;;;;;;5050283;28;20032;-59
2021/09/18 13:29:39;;;;;;;6.50;2.72;;;;;;;;;;5050303;28;20060;-58
2021/09/18 13:32:05;;;;;;;8.45;3.00;;;;;;;;;;5051201;28;20194;-58
2021/09/18 13:34:31;;;;;;;8.07;3.15;;;;;;;;;;5031498;28;20043;-59
2021/09/18 13:36:57;;;;;;;6.65;2.92;;;;;;;;;;5030327;28;20040;-58
2021/09/18 13:39:23;;;;;;;6.28;2.97;;;;;;;;;;5051335;28;20052;-58
2021/09/18 13:41:49;;;;;;;8.57;3.50;;;;;;;;;;5049785;28;20048;-58
2021/09/18 13:44:15;;;;;;;6.72;3.55;;;;;;;;;;5048569;28;20431;-58
2021/09/18 13:46:40;;;;;;;8.18;3.53;;;;;;;;;;5049234;28;20041;-58
2021/09/18 13:49:06;;;;;;;8.05;3.13;;;;;;;;;;5049387;28;20057;-58
2021/09/18 13:51:32;;;;;;;7.75;3.60;;;;;;;;;;5048268;28;20467;-58
2021/09/18 13:53:58;;;;;;;7.32;3.55;;;;;;;;;;5049726;28;20048;-58
2021/09/18 13:56:24;;;;;;;7.88;3.25;;;;;;;;;;5049389;28;20037;-57
2021/09/18 13:58:49;;;;;;;10.05;3.38;;;;;;;;;;5051530;28;20135;-57
2021/09/18 14:01:15;;;;;;;8.98;3.30;;;;;;;;;;5034296;28;20451;-57
2021/09/18 14:03:41;;;;;;;16.42;3.80;;;;;;;;;;5048602;28;20037;-58
2021/09/18 14:06:07;;;;;;;7.82;3.55;;;;;;;;;;5051290;28;20063;-57
2021/09/18 14:08:34;;;;;;;8.90;3.00;;;;;;;;;;5050449;28;20106;-58
2021/09/18 14:11:00;;;;;;;7.13;3.45;;;;;;;;;;5050221;28;20050;-58
2021/09/18 14:13:26;;;;;;;10.38;3.08;;;;;;;;;;5049771;28;20510;-59
2021/09/18 14:15:52;;;;;;;9.27;3.28;;;;;;;;;;5050920;28;21865;-58
2021/09/18 14:18:18;;;;;;;8.20;2.80;;;;;;;;;;5049101;28;20049;-58
2021/09/18 14:20:44;;;;;;;6.75;2.90;;;;;;;;;;5051024;28;20048;-58
2021/09/18 14:23:10;;;;;;;8.38;2.95;;;;;;;;;;5049130;28;20139;-58
2021/09/18 14:25:36;;;;;;;6.03;3.00;;;;;;;;;;5048219;28;20056;-57
2021/09/18 14:28:02;;;;;;;9.05;2.88;;;;;;;;;;5052319;28;20535;-55
2021/09/18 14:30:28;;;;;;;7.60;2.90;;;;;;;;;;5049266;28;20045;-59
2021/09/18 14:32:54;;;;;;;11.80;2.67;;;;;;;;;;5051047;28;20607;-58
2021/09/18 14:35:20;;;;;;;16.75;2.97;;;;;;;;;;5050998;28;20542;-58
2021/09/18 14:37:45;;;;;;;7.38;2.63;;;;;;;;;;5048895;28;20078;-58
2021/09/18 14:40:12;;;;;;;11.45;2.88;;;;;;;;;;5052311;28;20041;-57
2021/09/18 14:42:38;;;;;;;5.05;2.70;;;;;;;;;;5049453;28;21623;-58
2021/09/18 14:45:05;;;;;;;5.18;2.40;;;;;;;;;;5048230;28;20041;-57